Time;durP1;ratioP1;P1;durP2;ratioP2;P2;SDS_P1;SDS_P2;PMS_P1;PMS_P2;Temp;Humidity;BMP_temperature;BMP_pressure;BME280_temperature;BME280_humidity;BME280_pressure;Samples;Min_cycle;Max_cycle;Signal;HPM_P1;HPM_P2
2024/04/12 00:01:42;;;;;;;8.02;3.05;;;;;;;13.75;100.00;102916.44;5435565;26;20019;-73
2024/04/12 00:04:09;;;;;;;6.68;3.60;;;;;;;13.72;100.00;102911.47;5408967;26;20542;-74
2024/04/12 00:06:37;;;;;;;6.40;3.05;;;;;;;13.73;100.00;102912.28;5407301;26;20018;-74
2024/04/12 00:09:09;;;;;;;7.60;3.35;;;;;;;13.71;100.00;102915.03;5442297;26;20030;-74
2024/04/12 00:11:39;;;;;;;11.00;4.95;;;;;;;13.76;100.00;102912.84;5439102;26;20021;-73
2024/04/12 00:14:05;;;;;;;5.43;3.15;;;;;;;13.74;100.00;102917.38;5439589;26;20006;-73
2024/04/12 00:16:31;;;;;;;6.00;2.90;;;;;;;13.72;100.00;102921.88;5441739;26;20007;-73
2024/04/12 00:19:12;;;;;;;6.57;3.10;;;;;;;13.72;100.00;102919.28;5447487;26;20492;-74
2024/04/12 00:21:41;;;;;;;8.63;3.35;;;;;;;13.70;100.00;102910.75;5444339;26;20324;-74
2024/04/12 00:24:11;;;;;;;11.40;3.35;;;;;;;13.69;100.00;102909.09;5446648;26;20034;-73
2024/04/12 00:26:43;;;;;;;6.55;3.45;;;;;;;13.71;100.00;102909.81;5440174;26;20017;-73
2024/04/12 00:32:05;;;;;;;7.25;3.72;;;;;;;13.68;100.00;102902.25;5444233;26;20014;-73
2024/04/12 00:34:38;;;;;;;6.97;3.30;;;;;;;13.70;100.00;102912.53;5438772;26;20612;-74
2024/04/12 00:37:08;;;;;;;6.35;3.40;;;;;;;13.74;100.00;102904.34;5444107;26;20867;-74
2024/04/12 00:39:35;;;;;;;5.38;3.13;;;;;;;13.73;100.00;102912.28;5415196;26;20011;-73
2024/04/12 00:42:07;;;;;;;7.88;3.50;;;;;;;13.71;100.00;102901.16;5404018;26;20011;-74
2024/04/12 00:44:34;;;;;;;7.85;3.10;;;;;;;13.68;100.00;102888.38;5409162;26;20023;-73
2024/04/12 00:47:04;;;;;;;5.93;3.25;;;;;;;13.65;100.00;102884.22;5435715;26;20003;-73
2024/04/12 00:49:30;;;;;;;4.43;3.00;;;;;;;13.67;100.00;102886.72;5434254;26;20007;-74
2024/04/12 00:52:02;;;;;;;6.82;3.00;;;;;;;13.64;100.00;102882.59;5405084;26;19999;-74
2024/04/12 00:54:29;;;;;;;8.85;3.75;;;;;;;13.68;100.00;102883.16;5407589;26;23191;-74
2024/04/12 00:56:56;;;;;;;5.88;3.33;;;;;;;13.60;100.00;102881.19;5407389;26;20462;-73
2024/04/12 00:59:23;;;;;;;5.97;3.05;;;;;;;13.60;100.00;102887.22;5440338;26;20080;-73
2024/04/12 01:01:52;;;;;;;5.50;3.20;;;;;;;13.65;100.00;102884.22;5405109;26;20002;-73
2024/04/12 01:04:21;;;;;;;7.32;3.55;;;;;;;13.59;100.00;102887.34;5408857;26;20788;-74
2024/04/12 01:06:47;;;;;;;6.32;2.88;;;;;;;13.61;100.00;102882.84;5406831;26;20058;-74
2024/04/12 01:09:13;;;;;;;7.68;3.85;;;;;;;13.63;100.00;102875.72;5438682;26;20080;-75
2024/04/12 01:11:40;;;;;;;5.50;2.97;;;;;;;13.60;100.00;102875.97;5437793;26;20002;-74
2024/04/12 01:14:08;;;;;;;6.85;3.50;;;;;;;13.69;100.00;102867.38;5404370;26;20026;-73
2024/04/12 01:16:38;;;;;;;6.32;3.30;;;;;;;13.61;100.00;102868.00;5408242;26;20082;-74
2024/04/12 01:19:11;;;;;;;8.82;3.50;;;;;;;13.59;100.00;102869.09;5439599;26;20457;-74
2024/04/12 01:21:38;;;;;;;9.75;3.00;;;;;;;13.56;100.00;102870.19;5441284;26;20006;-74
2024/04/12 01:24:06;;;;;;;8.00;3.70;;;;;;;13.56;100.00;102862.38;5411417;26;20007;-73
2024/04/12 01:26:32;;;;;;;6.65;3.38;;;;;;;13.54;100.00;102855.59;5411726;26;20007;-74
2024/04/12 01:28:58;;;;;;;8.43;3.38;;;;;;;13.51;100.00;102848.06;5406310;26;20009;-74
2024/04/12 01:31:27;;;;;;;9.48;4.03;;;;;;;13.56;100.00;102853.69;5435166;26;20014;-73
2024/04/12 01:33:54;;;;;;;16.73;4.93;;;;;;;13.59;100.00;102851.69;5405846;26;20002;-73
2024/04/12 01:36:21;;;;;;;10.00;6.00;;;;;;;13.67;100.00;102848.44;5407427;26;20003;-73
2024/04/12 01:38:57;;;;;;;9.68;5.55;;;;;;;13.62;100.00;102838.41;5443227;26;20011;-73
2024/04/12 01:41:33;;;;;;;8.95;6.15;;;;;;;13.71;100.00;102836.81;5411144;26;20038;-73
2024/04/12 01:44:09;;;;;;;9.55;5.85;;;;;;;13.66;100.00;102836.38;5437813;26;20344;-74
2024/04/12 01:46:37;;;;;;;9.48;5.60;;;;;;;13.54;100.00;102837.38;5442331;26;20006;-74
2024/04/12 01:49:10;;;;;;;13.85;6.45;;;;;;;13.57;100.00;102839.72;5407475;26;20018;-74
2024/04/12 01:51:40;;;;;;;;;;;;;;;13.50;100.00;102849.00;5444213;26;20088;-74
2024/04/12 01:57:28;;;;;;;20.38;6.45;;;;;;;13.46;100.00;102845.00;5414541;26;19999;-74
2024/04/12 01:59:54;;;;;;;9.55;5.30;;;;;;;13.43;100.00;102846.91;5444936;26;20007;-73
2024/04/12 02:02:20;;;;;;;13.10;6.28;;;;;;;13.47;100.00;102847.47;5442038;26;20453;-74
2024/04/12 02:04:51;;;;;;;12.63;6.03;;;;;;;13.43;100.00;102844.28;5411101;26;20007;-74
2024/04/12 02:07:17;;;;;;;11.90;5.75;;;;;;;13.51;100.00;102846.28;5410097;26;20039;-73
2024/04/12 02:09:43;;;;;;;11.30;6.18;;;;;;;13.43;100.00;102848.69;5440554;26;20590;-75
2024/04/12 02:12:09;;;;;;;13.13;5.75;;;;;;;13.41;100.00;102845.34;5413668;26;20478;-73
2024/04/12 02:14:35;;;;;;;12.85;6.32;;;;;;;13.36;100.00;102831.91;5440217;26;20013;-74
2024/04/12 02:17:02;;;;;;;13.10;6.18;;;;;;;13.34;100.00;102839.81;5438186;26;20523;-74
2024/04/12 02:19:30;;;;;;;14.70;6.00;;;;;;;13.40;100.00;102833.28;5437768;26;20064;-73
2024/04/12 02:21:56;;;;;;;11.45;6.47;;;;;;;13.36;100.00;102831.91;5443125;26;20054;-74
2024/04/12 02:24:23;;;;;;;12.88;5.82;;;;;;;13.42;100.00;102821.78;5414544;26;20011;-74
2024/04/12 02:26:50;;;;;;;10.27;6.05;;;;;;;13.41;100.00;102822.75;5441209;26;20018;-74
2024/04/12 02:29:16;;;;;;;12.27;6.43;;;;;;;13.42;100.00;102816.56;5442454;26;20011;-73
2024/04/12 02:31:43;;;;;;;12.57;6.20;;;;;;;13.44;100.00;102816.44;5441299;26;20007;-73
2024/04/12 02:34:11;;;;;;;17.00;6.18;;;;;;;13.46;100.00;102819.75;5409747;26;20007;-73
2024/04/12 02:36:37;;;;;;;13.60;7.55;;;;;;;13.34;100.00;102819.00;5449609;26;20029;-74
2024/04/12 02:39:06;;;;;;;12.93;6.43;;;;;;;13.27;100.00;102809.16;5442562;26;20010;-74
2024/04/12 02:41:37;;;;;;;16.38;6.95;;;;;;;13.28;100.00;102813.41;5406354;26;20011;-73
2024/04/12 02:44:06;;;;;;;10.73;6.07;;;;;;;13.38;100.00;102825.59;5405591;26;20481;-75
2024/04/12 02:46:32;;;;;;;12.07;6.18;;;;;;;13.36;100.00;102824.91;5441453;26;20532;-74
2024/04/12 02:49:04;;;;;;;11.90;6.65;;;;;;;13.33;100.00;102822.53;5453028;26;20006;-73
2024/04/12 02:51:30;;;;;;;12.43;6.50;;;;;;;13.32;100.00;102827.88;5436575;26;20010;-73
2024/04/12 02:53:57;;;;;;;13.65;6.35;;;;;;;13.27;100.00;102833.44;5418050;26;20100;-74
2024/04/12 02:56:24;;;;;;;13.50;7.00;;;;;;;13.26;100.00;102837.00;5411590;26;20013;-75
2024/04/12 02:58:52;;;;;;;9.65;6.20;;;;;;;13.29;100.00;102834.13;5444292;26;20023;-74
2024/04/12 03:01:23;;;;;;;10.23;5.72;;;;;;;13.21;100.00;102837.34;5438971;26;19999;-74
2024/04/12 03:03:55;;;;;;;11.95;6.20;;;;;;;13.22;100.00;102839.03;5443778;26;20013;-74
2024/04/12 03:06:24;;;;;;;12.25;5.90;;;;;;;13.27;100.00;102848.25;5443070;26;19998;-74
2024/04/12 03:08:52;;;;;;;11.60;5.72;;;;;;;13.23;100.00;102848.47;5379000;26;20015;-74
2024/04/12 03:11:25;;;;;;;10.43;5.53;;;;;;;13.15;100.00;102850.88;5378642;26;20390;-74
2024/04/12 03:14:12;;;;;;;12.77;5.18;;;;;;;13.18;100.00;102836.78;5442048;26;20043;-73
2024/04/12 03:16:40;;;;;;;10.43;6.00;;;;;;;13.25;100.00;102835.34;5442497;26;20076;-74
2024/04/12 03:19:10;;;;;;;13.70;5.47;;;;;;;13.13;100.00;102838.91;5441498;26;20068;-74
2024/04/12 03:21:37;;;;;;;10.15;5.57;;;;;;;13.09;100.00;102832.31;5433980;26;20007;-74
2024/04/12 03:24:08;;;;;;;10.55;5.65;;;;;;;13.11;100.00;102831.25;5409831;26;20067;-74
2024/04/12 03:26:35;;;;;;;13.80;6.35;;;;;;;13.15;100.00;102839.63;5409588;26;20015;-73
2024/04/12 03:29:05;;;;;;;7.68;4.53;;;;;;;13.14;100.00;102837.97;5438781;26;20018;-74
2024/04/12 03:31:33;;;;;;;9.38;5.32;;;;;;;13.12;100.00;102839.88;5439263;26;20030;-74
2024/04/12 03:34:00;;;;;;;9.35;4.97;;;;;;;13.13;100.00;102838.91;5409737;26;20080;-74
2024/04/12 03:41:58;;;;;;;13.20;5.97;;;;;;;13.11;100.00;102833.84;5437391;26;20003;-74
2024/04/12 03:44:31;;;;;;;9.48;5.45;;;;;;;13.17;100.00;102832.53;5413173;26;20342;-74
2024/04/12 03:47:00;;;;;;;12.15;5.85;;;;;;;13.17;100.00;102827.31;5427124;26;20024;-73
2024/04/12 03:49:28;;;;;;;11.30;6.38;;;;;;;13.13;100.00;102828.50;5410879;26;20486;-73
2024/04/12 03:51:56;;;;;;;15.60;6.30;;;;;;;13.16;100.00;102823.03;5411518;26;20007;-74
2024/04/12 03:54:24;;;;;;;10.32;6.50;;;;;;;13.13;100.00;102820.69;5410473;26;20030;-74
2024/04/12 03:56:52;;;;;;;12.70;7.68;;;;;;;13.15;100.00;102818.81;5411180;26;20007;-74
2024/04/12 03:59:23;;;;;;;16.05;7.82;;;;;;;13.10;100.00;102826.97;5411917;26;20014;-74
2024/04/12 04:01:53;;;;;;;18.65;8.20;;;;;;;13.10;100.00;102816.56;5437150;26;20008;-74
2024/04/12 04:04:19;;;;;;;17.73;8.20;;;;;;;13.10;100.00;102815.72;5440842;26;20010;-74
2024/04/12 04:06:50;;;;;;;20.45;9.90;;;;;;;13.12;100.00;102811.22;5442094;26;20007;-73
2024/04/12 04:09:20;;;;;;;14.02;8.15;;;;;;;13.03;100.00;102813.63;5440262;26;20010;-74
2024/04/12 04:11:47;;;;;;;17.85;9.05;;;;;;;13.10;100.00;102815.72;5439117;26;20014;-74
2024/04/12 04:14:13;;;;;;;14.65;8.20;;;;;;;13.04;100.00;102810.06;5439519;26;20006;-74
2024/04/12 04:16:42;;;;;;;17.08;9.35;;;;;;;13.05;100.00;102818.69;5441142;26;20470;-73
2024/04/12 04:19:12;;;;;;;15.45;9.10;;;;;;;13.00;100.00;102823.47;5440617;26;20035;-74
2024/04/12 04:21:41;;;;;;;16.92;9.02;;;;;;;12.97;100.00;102819.31;5437996;26;20007;-73
2024/04/12 04:24:08;;;;;;;15.98;9.57;;;;;;;12.96;100.00;102812.47;5407109;26;20085;-74
2024/04/12 04:26:41;;;;;;;15.93;9.52;;;;;;;12.97;100.00;102814.09;5411650;26;20006;-73
2024/04/12 04:29:11;;;;;;;17.73;9.95;;;;;;;12.94;100.00;102810.91;5408351;26;20011;-73
2024/04/12 04:31:52;;;;;;;23.58;10.15;;;;;;;12.95;100.00;102813.41;5409925;26;20035;-74
2024/04/12 04:34:19;;;;;;;16.35;9.18;;;;;;;12.96;100.00;102819.44;5411530;26;20006;-74
2024/04/12 04:36:49;;;;;;;23.25;11.13;;;;;;;12.93;100.00;102809.28;5375819;26;20367;-74
2024/04/12 04:39:21;;;;;;;23.50;11.40;;;;;;;12.90;100.00;102807.72;5439382;26;20014;-73
2024/04/12 04:41:52;;;;;;;22.65;11.35;;;;;;;12.98;100.00;102814.94;5402841;26;20022;-74
2024/04/12 04:44:18;;;;;;;19.27;9.77;;;;;;;12.96;100.00;102812.47;5431941;26;20458;-74
2024/04/12 04:46:49;;;;;;;25.40;12.30;;;;;;;12.91;100.00;102813.78;5409012;26;20083;-73
2024/04/12 04:49:16;;;;;;;22.50;10.52;;;;;;;12.85;100.00;102808.09;5383030;26;20021;-73
2024/04/12 04:51:46;;;;;;;28.88;11.57;;;;;;;13.00;100.00;102819.06;5440483;26;20003;-73
2024/04/12 04:54:13;;;;;;;20.42;10.60;;;;;;;12.94;100.00;102811.75;5439742;26;20084;-74
2024/04/12 04:56:43;;;;;;;23.02;11.73;;;;;;;12.94;100.00;102811.75;5405588;26;20825;-73
2024/04/12 04:59:16;;;;;;;21.52;10.50;;;;;;;12.91;100.00;102812.00;5408638;26;20007;-73
2024/04/12 05:01:48;;;;;;;;;;;;;;;12.97;100.00;102808.88;5440694;26;20442;-74
2024/04/12 05:04:22;;;;;;;17.13;9.30;;;;;;;12.87;100.00;102799.34;5444758;26;19932;-74
2024/04/12 05:06:52;;;;;;;20.60;10.88;;;;;;;12.89;100.00;102805.28;5445206;26;20015;-73
2024/04/12 05:09:19;;;;;;;15.75;9.65;;;;;;;12.89;100.00;102800.06;5441548;26;20002;-74
2024/04/12 05:11:46;;;;;;;18.05;9.65;;;;;;;12.90;100.00;102802.50;5412071;26;20088;-74
2024/04/12 05:14:41;;;;;;;18.95;10.13;;;;;;;12.92;100.00;102813.66;5380728;26;20024;-74
2024/04/12 05:17:05;;;;;;;21.17;10.18;;;;;;;12.92;100.00;102808.47;5413797;26;20006;-74
2024/04/12 05:19:32;;;;;;;14.75;8.82;;;;;;;12.93;100.00;102812.69;5436548;26;19999;-73
2024/04/12 05:22:06;;;;;;;17.00;9.13;;;;;;;12.92;100.00;102803.25;5444027;26;20011;-73
2024/04/12 05:24:34;;;;;;;20.08;10.15;;;;;;;12.91;100.00;102813.78;5411202;26;20003;-74
2024/04/12 05:27:04;;;;;;;17.65;10.30;;;;;;;12.96;100.00;102814.22;5442412;26;20028;-74
2024/04/12 05:29:31;;;;;;;18.08;9.68;;;;;;;12.92;100.00;102808.47;5441285;26;22012;-74
2024/04/12 05:32:00;;;;;;;16.75;9.73;;;;;;;12.96;100.00;102809.00;5436738;26;20033;-74
2024/04/12 05:34:27;;;;;;;21.23;9.90;;;;;;;12.95;100.00;102807.38;5445150;26;20018;-74
2024/04/12 05:37:03;;;;;;;22.38;10.70;;;;;;;13.07;100.00;102814.19;5415263;26;20022;-73
2024/04/12 05:39:36;;;;;;;15.82;9.20;;;;;;;13.04;100.00;102809.25;5405115;26;20007;-73
2024/04/12 05:42:05;;;;;;;16.88;9.57;;;;;;;12.98;100.00;102805.34;5414643;26;20059;-73
2024/04/12 05:44:34;;;;;;;19.35;9.68;;;;;;;13.03;100.00;102813.63;5414327;26;20011;-74
2024/04/12 05:47:00;;;;;;;18.48;9.32;;;;;;;13.05;100.00;102810.88;5444444;26;20029;-74
2024/04/12 05:49:30;;;;;;;23.55;9.70;;;;;;;13.00;100.00;102802.63;5420617;26;20034;-74
2024/04/12 05:52:01;;;;;;;17.15;8.88;;;;;;;13.01;100.00;102802.47;5442863;26;20007;-73
2024/04/12 05:54:39;;;;;;;14.15;7.93;;;;;;;13.10;100.00;102813.94;5407197;26;20099;-74
2024/04/12 05:57:06;;;;;;;17.40;8.27;;;;;;;13.10;100.00;102821.75;5409215;26;20545;-73
2024/04/12 05:59:33;;;;;;;19.40;8.35;;;;;;;13.13;100.00;102821.53;5439813;26;20011;-73
2024/04/12 06:02:01;;;;;;;19.52;9.30;;;;;;;13.13;100.00;102824.13;5413090;26;20011;-73
2024/04/12 06:04:27;;;;;;;14.93;8.30;;;;;;;13.16;100.00;102826.47;5422733;26;20020;-74
2024/04/12 06:06:54;;;;;;;21.15;8.68;;;;;;;13.21;100.00;102820.91;5428749;26;20491;-73
2024/04/12 06:09:21;;;;;;;22.52;8.88;;;;;;;13.32;100.00;102820.91;5442459;26;20007;-73
2024/04/12 06:11:58;;;;;;;21.10;8.82;;;;;;;13.29;100.00;102828.09;5440447;26;22478;-74
2024/04/12 06:14:24;;;;;;;17.45;8.63;;;;;;;13.33;100.00;102816.50;5441426;26;20018;-74
2024/04/12 06:16:57;;;;;;;13.80;8.30;;;;;;;13.48;100.00;102822.25;5419554;26;20087;-73
2024/04/12 06:19:24;;;;;;;12.82;7.43;;;;;;;13.41;100.00;102817.53;5441538;26;20007;-74
2024/04/12 06:21:50;;;;;;;18.55;8.57;;;;;;;13.49;100.00;102811.69;5412682;26;20002;-73
2024/04/12 06:24:26;;;;;;;14.90;7.35;;;;;;;13.54;100.00;102813.91;5410131;26;20014;-74
2024/04/12 06:26:55;;;;;;;15.68;8.32;;;;;;;13.61;100.00;102817.66;5442628;26;20007;-74
2024/04/12 06:29:23;;;;;;;14.80;7.28;;;;;;;13.65;100.00;102815.63;5411950;26;20007;-74
2024/04/12 06:31:50;;;;;;;16.40;8.20;;;;;;;13.67;100.00;102817.16;5383252;26;20003;-74
2024/04/12 06:34:19;;;;;;;13.35;8.60;;;;;;;13.73;100.00;102821.03;5443193;26;20416;-74
2024/04/12 06:36:47;;;;;;;15.13;8.25;;;;;;;13.71;100.00;102822.94;5441180;26;20003;-74
2024/04/12 06:39:15;;;;;;;16.67;8.50;;;;;;;13.68;100.00;102824.03;5412840;26;20525;-74
2024/04/12 06:41:45;;;;;;;16.05;6.93;;;;;;;13.65;100.00;102819.06;5414197;26;20018;-74
2024/04/12 06:44:15;;;;;;;12.18;7.20;;;;;;;13.68;100.00;102816.22;5413226;26;20003;-74
2024/04/12 06:46:44;;;;;;;16.85;7.38;;;;;;;13.69;100.00;102815.25;5409040;26;20018;-74
2024/04/12 06:49:14;;;;;;;15.38;6.90;;;;;;;13.70;100.00;102809.09;5439681;26;20411;-74
2024/04/12 06:54:41;;;;;;;16.65;7.10;;;;;;;13.92;100.00;102809.88;5415037;26;20357;-74
2024/04/12 06:57:25;;;;;;;18.38;7.38;;;;;;;13.98;100.00;102798.94;5382984;26;20018;-74
2024/04/12 06:59:54;;;;;;;17.52;7.10;;;;;;;14.07;100.00;102808.63;5441738;26;20011;-74
2024/04/12 07:02:26;;;;;;;14.95;6.15;;;;;;;14.01;100.00;102809.09;5398972;26;20025;-73
2024/04/12 07:04:56;;;;;;;14.35;6.30;;;;;;;13.97;100.00;102812.94;5437364;26;20018;-74
2024/04/12 07:07:28;;;;;;;11.90;6.45;;;;;;;14.03;100.00;102809.81;5406496;26;20003;-74
2024/04/12 07:09:59;;;;;;;14.98;6.93;;;;;;;14.12;100.00;102822.06;5405996;26;20103;-74
2024/04/12 07:12:31;;;;;;;11.23;6.78;;;;;;;14.19;100.00;102819.78;5411015;26;20461;-74
2024/04/12 07:14:57;;;;;;;10.85;6.25;;;;;;;14.17;100.00;102816.47;5411598;26;20013;-74
2024/04/12 07:17:25;;;;;;;13.90;6.80;;;;;;;14.31;100.00;102817.91;5406985;26;20018;-74
2024/04/12 07:19:52;;;;;;;13.57;6.60;;;;;;;14.40;100.00;102817.09;5441985;26;20095;-74
2024/04/12 07:22:22;;;;;;;14.35;6.80;;;;;;;14.49;100.00;102818.09;5379788;26;20008;-74
2024/04/12 07:24:52;;;;;;;16.88;7.30;;;;;;;14.61;100.00;102814.44;5413375;26;20007;-74
2024/04/12 07:27:23;;;;;;;12.80;6.13;;;;;;;14.74;100.00;102817.63;5406222;26;20018;-73
2024/04/12 07:29:50;;;;;;;14.57;7.25;;;;;;;14.79;100.00;102809.41;5440490;26;20003;-74
2024/04/12 07:32:17;;;;;;;11.75;6.90;;;;;;;14.84;100.00;102809.00;5444324;26;20084;-73
2024/04/12 07:34:49;;;;;;;12.75;7.03;;;;;;;14.85;100.00;102810.66;5441264;26;20462;-74
2024/04/12 07:37:27;;;;;;;15.68;7.38;;;;;;;14.85;100.00;102808.88;5444304;26;20002;-74
2024/04/12 07:42:45;;;;;;;12.65;6.20;;;;;;;15.03;100.00;102806.44;5442872;26;20003;-74
2024/04/12 07:45:32;;;;;;;10.57;5.75;;;;;;;15.07;100.00;102799.97;5405956;26;20011;-74
2024/04/12 07:48:11;;;;;;;13.85;5.82;;;;;;;15.12;100.00;102813.41;5435513;26;20014;-74
2024/04/12 07:50:39;;;;;;;17.98;6.32;;;;;;;15.19;100.00;102806.69;5441651;26;20017;-74
2024/04/12 07:53:25;;;;;;;12.45;5.88;;;;;;;15.29;100.00;102803.25;5412733;26;20022;-74
2024/04/12 07:56:08;;;;;;;14.55;6.03;;;;;;;15.24;100.00;102806.28;5444388;26;20021;-73
2024/04/12 07:58:35;;;;;;;20.23;7.40;;;;;;;15.29;100.00;102809.28;5381218;26;20055;-74
2024/04/12 08:01:09;;;;;;;12.52;6.55;;;;;;;15.41;100.00;102816.97;5409525;26;20007;-74
2024/04/12 08:03:42;;;;;;;16.65;6.03;;;;;;;15.52;100.00;102811.59;5438704;26;20456;-73
2024/04/12 08:06:36;;;;;;;14.45;5.57;;;;;;;15.49;100.00;102812.72;5441946;26;20010;-74
2024/04/12 08:09:05;;;;;;;;;;;;;;;15.47;100.00;102816.44;5443768;26;20010;-74
2024/04/12 08:11:35;;;;;;;15.18;5.82;;;;;;;15.62;100.00;102815.03;5443733;26;19925;-75
2024/04/12 08:14:06;;;;;;;15.02;5.30;;;;;;;15.54;100.00;102818.38;5411253;26;20007;-74
2024/04/12 08:16:36;;;;;;;11.20;5.22;;;;;;;15.65;100.00;102824.38;5411922;26;20354;-73
2024/04/12 08:19:22;;;;;;;12.32;5.25;;;;;;;15.60;100.00;102826.63;5441828;26;20007;-74
2024/04/12 08:21:49;;;;;;;12.52;5.30;;;;;;;15.58;100.00;102819.72;5442798;26;20419;-73
2024/04/12 08:24:15;;;;;;;9.60;4.50;;;;;;;15.70;100.00;102819.56;5443966;26;20006;-74
2024/04/12 08:26:46;;;;;;;11.35;4.28;;;;;;;15.70;100.00;102824.81;5443774;26;20014;-75
2024/04/12 08:29:20;;;;;;;17.23;5.43;;;;;;;15.78;100.00;102814.47;5447227;26;19991;-74
2024/04/12 08:31:47;;;;;;;12.15;4.78;;;;;;;15.71;100.00;102819.44;5442634;26;20021;-74
2024/04/12 08:34:15;;;;;;;8.82;4.28;;;;;;;15.81;100.00;102816.00;5413268;26;20010;-74
2024/04/12 08:36:49;;;;;;;8.70;3.65;;;;;;;15.88;100.00;102815.28;5410474;26;20017;-74
2024/04/12 08:39:25;;;;;;;6.18;3.35;;;;;;;16.09;100.00;102819.50;5447726;26;20054;-74
2024/04/12 08:41:59;;;;;;;8.27;3.28;;;;;;;16.02;100.00;102821.84;5446042;26;20007;-74
2024/04/12 08:44:29;;;;;;;11.50;3.30;;;;;;;16.07;100.00;102818.81;5441567;26;20040;-75
2024/04/12 08:47:04;;;;;;;8.48;3.63;;;;;;;16.13;100.00;102819.06;5412445;26;20007;-75
2024/04/12 08:49:45;;;;;;;8.00;3.72;;;;;;;16.17;100.00;102824.00;5438722;26;20071;-74
2024/04/12 08:52:24;;;;;;;8.65;3.22;;;;;;;16.24;100.00;102814.63;5408881;26;20010;-75
2024/04/12 08:54:54;;;;;;;5.28;3.03;;;;;;;16.22;100.00;102817.38;5408333;26;20633;-75
2024/04/12 08:57:24;;;;;;;10.15;3.80;;;;;;;16.33;100.00;102816.34;5414136;26;20057;-74
2024/04/12 08:59:51;;;;;;;8.38;3.28;;;;;;;16.38;100.00;102818.53;5444535;26;20007;-75
2024/04/12 09:02:21;;;;;;;7.03;3.35;;;;;;;16.38;100.00;102813.31;5414373;26;20022;-74
2024/04/12 09:04:47;;;;;;;5.15;2.95;;;;;;;16.51;100.00;102826.88;5439881;26;20040;-74
2024/04/12 09:07:14;;;;;;;7.35;3.38;;;;;;;16.42;99.35;102809.41;5445506;26;20007;-74
2024/04/12 09:09:45;;;;;;;7.32;3.65;;;;;;;16.55;99.45;102815.94;5413288;26;20409;-74
2024/04/12 09:12:14;;;;;;;9.77;3.28;;;;;;;16.53;99.25;102820.50;5413810;26;20006;-74
2024/04/12 09:14:44;;;;;;;7.05;3.38;;;;;;;16.60;99.01;102812.91;5408144;26;20345;-74
2024/04/12 09:17:14;;;;;;;10.10;3.45;;;;;;;16.73;99.24;102809.94;5445981;26;20003;-74
2024/04/12 09:19:40;;;;;;;9.70;4.15;;;;;;;16.76;97.37;102809.63;5442644;26;20075;-74
2024/04/12 09:22:10;;;;;;;9.77;3.10;;;;;;;16.75;96.89;102808.00;5441604;26;20294;-74
2024/04/12 09:24:39;;;;;;;6.75;3.20;;;;;;;16.89;96.66;102817.16;5410999;26;20002;-74
2024/04/12 09:27:12;;;;;;;7.38;3.40;;;;;;;16.92;96.07;102806.38;5444762;26;20523;-74
2024/04/12 09:29:44;;;;;;;8.75;3.20;;;;;;;16.92;94.36;102814.25;5412326;26;20083;-74
2024/04/12 09:34:58;;;;;;;10.65;3.08;;;;;;;16.90;96.16;102817.00;5437412;26;20015;-74
2024/04/12 09:42:47;;;;;;;7.47;3.17;;;;;;;17.26;92.87;102809.13;5443151;26;20007;-75
2024/04/12 09:45:21;;;;;;;7.30;2.83;;;;;;;17.31;92.72;102819.19;5440695;26;20039;-73
2024/04/12 10:38:05;;;;;;;5.70;2.00;;;;;;;18.02;88.66;102801.63;5440955;26;20007;-74
2024/04/12 10:40:33;;;;;;;4.82;1.98;;;;;;;17.94;87.56;102799.78;5442888;26;20041;-74
2024/04/12 10:42:59;;;;;;;4.53;1.80;;;;;;;17.95;88.19;102797.97;5412761;26;20015;-74
2024/04/12 10:45:29;;;;;;;4.57;2.10;;;;;;;18.04;86.55;102807.53;5411949;26;20079;-75
2024/04/12 10:47:56;;;;;;;5.40;2.00;;;;;;;18.22;86.12;102799.56;5408448;26;20039;-74
2024/04/12 10:50:23;;;;;;;5.82;2.00;;;;;;;18.27;85.59;102797.28;5444718;26;20006;-74
2024/04/12 10:52:51;;;;;;;6.00;1.85;;;;;;;18.27;85.16;102797.28;5422828;26;20010;-74
2024/04/12 10:55:19;;;;;;;7.05;2.05;;;;;;;18.41;85.50;102790.63;5410996;26;20530;-74
2024/04/12 10:57:49;;;;;;;5.90;2.88;;;;;;;18.48;84.49;102791.63;5409769;26;20003;-75
2024/04/12 11:00:27;;;;;;;5.53;2.03;;;;;;;18.44;84.14;102798.16;5430608;26;20008;-75
2024/04/12 11:02:59;;;;;;;5.82;2.03;;;;;;;18.59;84.57;102787.84;5440968;26;20002;-74
2024/04/12 11:05:38;;;;;;;4.38;2.50;;;;;;;18.55;80.98;102773.41;5436940;26;20010;-74
2024/04/12 11:08:10;;;;;;;4.10;1.90;;;;;;;18.79;80.51;102770.81;5409403;26;20018;-75
2024/04/12 11:10:39;;;;;;;5.32;1.92;;;;;;;18.89;81.00;102765.41;5440575;26;20454;-75
2024/04/12 11:13:18;;;;;;;6.80;2.30;;;;;;;18.93;79.68;102766.75;5441307;26;20014;-74
2024/04/12 11:32:12;;;;;;;8.75;2.00;;;;;;;20.22;75.48;102733.38;5443548;26;20017;-75
2024/04/12 11:34:41;;;;;;;4.07;1.73;;;;;;;20.58;74.69;102733.63;5407240;26;20018;-76
2024/04/12 11:37:09;;;;;;;5.78;1.95;;;;;;;20.51;73.71;102730.09;5415180;26;20007;-74
2024/04/12 11:39:37;;;;;;;2.95;1.70;;;;;;;20.39;71.58;102736.75;5409638;26;20017;-75
2024/04/12 11:42:04;;;;;;;6.32;1.98;;;;;;;20.49;68.64;102726.78;5443427;26;20562;-74
2024/04/12 11:44:33;;;;;;;7.65;1.55;;;;;;;20.57;70.25;102739.09;5438708;26;20087;-74
2024/04/12 11:47:02;;;;;;;5.35;1.52;;;;;;;20.63;68.82;102738.41;5410687;26;20087;-74
2024/04/12 11:49:41;;;;;;;6.60;1.70;;;;;;;20.56;70.99;102735.63;5406802;26;20011;-75
2024/04/12 11:52:27;;;;;;;8.55;2.25;;;;;;;20.64;68.95;102740.03;5410634;26;20006;-75
2024/04/12 11:54:53;;;;;;;8.13;2.13;;;;;;;20.78;70.68;102722.66;5429688;26;20011;-74
2024/04/12 11:57:22;;;;;;;30.60;15.70;;;;;;;20.73;71.38;102727.63;5436948;26;20021;-75
2024/04/12 11:59:54;;;;;;;6.03;1.80;;;;;;;20.86;71.28;102724.41;5407792;26;20029;-75
2024/04/12 12:02:25;;;;;;;5.15;1.70;;;;;;;21.03;69.06;102731.16;5380290;26;20018;-74
2024/04/12 12:04:51;;;;;;;4.25;1.52;;;;;;;20.80;69.02;102728.56;5438812;26;20013;-75
2024/04/12 12:07:18;;;;;;;5.55;1.42;;;;;;;20.65;69.89;102727.72;5439263;26;20026;-75
2024/04/12 12:09:44;;;;;;;8.50;2.20;;;;;;;20.71;68.65;102727.00;5409652;26;20018;-75
2024/04/12 12:12:10;;;;;;;3.15;1.42;;;;;;;20.69;70.91;102715.81;5443863;26;20342;-74
2024/04/12 12:14:41;;;;;;;8.63;1.40;;;;;;;20.64;68.35;102721.59;5410287;26;22647;-75
2024/04/12 12:17:09;;;;;;;4.85;1.70;;;;;;;20.74;68.40;102718.75;5441986;26;20083;-74
2024/04/12 12:19:35;;;;;;;6.22;1.40;;;;;;;20.83;64.97;102712.38;5411755;26;20016;-75
2024/04/12 12:22:01;;;;;;;7.13;1.60;;;;;;;20.80;66.32;102703.03;5443133;26;19998;-75
2024/04/12 12:24:27;;;;;;;6.60;1.40;;;;;;;20.82;66.08;102699.41;5411217;26;20026;-75
2024/04/12 12:26:53;;;;;;;4.07;1.38;;;;;;;21.04;67.73;102700.34;5413375;26;20019;-74
2024/04/12 12:29:20;;;;;;;3.10;1.42;;;;;;;21.10;65.46;102692.53;5438164;26;20011;-74
2024/04/12 12:31:46;;;;;;;5.50;1.70;;;;;;;21.03;65.70;102693.44;5408427;26;20026;-74
2024/04/12 12:34:14;;;;;;;4.63;1.50;;;;;;;21.10;65.17;102695.16;5409256;26;20046;-74
2024/04/12 12:36:40;;;;;;;4.63;1.42;;;;;;;21.04;64.70;102685.34;5438033;26;20047;-75
2024/04/12 12:39:09;;;;;;;6.68;2.25;;;;;;;20.93;65.00;102691.88;5415018;26;20002;-74
2024/04/12 12:41:35;;;;;;;5.85;1.33;;;;;;;21.04;65.41;102685.34;5443153;26;20007;-74
2024/04/12 12:44:05;;;;;;;4.38;1.38;;;;;;;21.05;65.69;102686.16;5405789;26;20081;-75
2024/04/12 12:46:32;;;;;;;5.63;1.60;;;;;;;21.13;66.21;102689.50;5442594;26;20011;-74
2024/04/12 12:48:58;;;;;;;3.25;1.80;;;;;;;21.09;64.54;102682.97;5444253;26;20018;-73
2024/04/12 12:51:29;;;;;;;5.78;1.65;;;;;;;21.15;63.68;102676.16;5412109;26;20423;-74
2024/04/12 12:53:56;;;;;;;6.38;1.55;;;;;;;21.23;64.24;102672.59;5409704;26;20021;-74
2024/04/12 12:56:22;;;;;;;3.70;1.52;;;;;;;21.32;63.26;102675.00;5442513;26;20644;-75
2024/04/12 12:58:49;;;;;;;4.25;1.60;;;;;;;21.11;64.24;102673.06;5440608;26;20537;-74